createdAt,value
2022-07-31T00:02:08.109Z,75.91
2022-07-31T00:04:34.945Z,76.00
2022-07-31T00:07:02.053Z,75.95
2022-07-31T00:09:53.504Z,75.55
2022-07-31T00:12:17.603Z,75.24
2022-07-31T00:14:45.069Z,75.03
2022-07-31T00:17:11.810Z,75.12
2022-07-31T00:19:38.532Z,75.28
2022-07-31T00:22:05.186Z,75.53
2022-07-31T00:24:31.766Z,75.59
2022-07-31T00:26:58.528Z,75.42
2022-07-31T00:29:25.903Z,75.57
2022-07-31T00:31:53.214Z,75.51
2022-07-31T00:34:19.987Z,75.86
2022-07-31T00:36:46.730Z,75.41
2022-07-31T00:39:13.529Z,75.01
2022-07-31T00:41:43.040Z,74.68
2022-07-31T00:44:12.396Z,74.09
2022-07-31T00:46:40.514Z,74.16
2022-07-31T00:49:10.022Z,74.21
2022-07-31T00:51:38.406Z,74.05
2022-07-31T00:54:06.147Z,74.18
2022-07-31T00:56:32.792Z,73.96
2022-07-31T00:58:59.977Z,73.75
2022-07-31T01:01:27.617Z,73.35
2022-07-31T01:03:54.553Z,73.42
2022-07-31T01:06:21.149Z,72.97
2022-07-31T01:08:48.539Z,73.18
2022-07-31T01:11:28.067Z,73.29
2022-07-31T01:13:58.546Z,73.18
2022-07-31T01:16:30.611Z,73.16
2022-07-31T01:18:58.954Z,73.44
2022-07-31T01:21:34.296Z,73.18
2022-07-31T01:24:24.639Z,73.05
2022-07-31T01:27:20.694Z,73.39
2022-07-31T01:29:53.553Z,73.32
2022-07-31T01:32:33.402Z,73.50
2022-07-31T01:35:24.866Z,73.37
2022-07-31T01:37:58.716Z,74.05
2022-07-31T01:40:35.706Z,73.90
2022-07-31T01:43:07.912Z,74.10
2022-07-31T01:45:36.689Z,74.58
2022-07-31T01:48:05.157Z,75.03
2022-07-31T01:50:43.870Z,74.97
2022-07-31T01:53:15.169Z,74.90
2022-07-31T01:56:02.217Z,75.04
2022-07-31T01:58:35.266Z,75.45
2022-07-31T02:01:09.321Z,76.06
2022-07-31T02:03:43.712Z,76.41
2022-07-31T02:06:16.143Z,76.85
2022-07-31T02:08:48.935Z,77.25
2022-07-31T02:11:19.274Z,77.02
2022-07-31T02:13:47.454Z,77.31
2022-07-31T02:16:16.636Z,77.44
2022-07-31T02:18:43.484Z,77.77
2022-07-31T02:21:15.224Z,77.96
2022-07-31T02:23:41.928Z,77.96
2022-07-31T02:26:09.784Z,78.13
2022-07-31T02:28:40.698Z,77.84
2022-07-31T02:31:11.342Z,78.23
2022-07-31T02:33:40.089Z,78.07
2022-07-31T02:36:07.411Z,77.90
2022-07-31T02:38:35.345Z,77.89
2022-07-31T02:41:05.013Z,77.98
2022-07-31T02:43:34.902Z,77.78
2022-07-31T02:46:12.669Z,78.07
2022-07-31T02:48:40.395Z,77.32
2022-07-31T02:51:09.820Z,77.25
2022-07-31T02:53:37.891Z,77.61
2022-07-31T02:56:09.805Z,77.98
2022-07-31T02:58:41.813Z,78.57
2022-07-31T03:01:14.318Z,78.13
2022-07-31T03:03:43.049Z,78.42
2022-07-31T03:06:11.071Z,78.38
2022-07-31T03:08:38.231Z,78.22
2022-07-31T03:11:05.615Z,78.37
2022-07-31T03:13:34.911Z,78.24
2022-07-31T03:16:04.210Z,77.97
2022-07-31T03:18:31.754Z,77.59
2022-07-31T03:20:58.768Z,77.35
2022-07-31T03:23:27.923Z,77.33
2022-07-31T03:26:04.322Z,77.12
2022-07-31T03:28:33.213Z,76.88
2022-07-31T03:30:59.984Z,76.77
2022-07-31T03:33:29.872Z,76.26
2022-07-31T03:35:56.604Z,76.54
2022-07-31T03:38:39.222Z,76.20
2022-07-31T03:41:17.651Z,75.81
2022-07-31T03:43:48.482Z,75.65
2022-07-31T03:46:23.738Z,75.38
2022-07-31T03:48:52.651Z,74.99
2022-07-31T03:51:20.491Z,74.58
2022-07-31T03:53:48.571Z,74.55
2022-07-31T03:56:36.493Z,74.73
2022-07-31T03:59:04.157Z,74.51
2022-07-31T04:01:57.455Z,74.40
2022-07-31T04:04:27.424Z,74.26
2022-07-31T04:07:00.229Z,74.51
2022-07-31T04:09:27.190Z,74.60
2022-07-31T04:11:53.877Z,74.72
2022-07-31T04:14:21.210Z,74.58
2022-07-31T04:16:48.208Z,74.34
2022-07-31T04:19:15.146Z,74.35
2022-07-31T04:21:41.788Z,74.21
2022-07-31T04:24:08.980Z,74.56
2022-07-31T04:26:58.596Z,74.59
2022-07-31T04:29:32.087Z,75.16
2022-07-31T04:31:58.754Z,75.12
2022-07-31T04:34:32.840Z,75.20
2022-07-31T04:36:59.620Z,75.48
2022-07-31T04:39:26.318Z,75.79
2022-07-31T04:41:53.045Z,75.57
2022-07-31T04:44:20.678Z,75.57
2022-07-31T04:47:01.949Z,75.09
2022-07-31T04:49:32.565Z,74.90
2022-07-31T04:52:02.385Z,74.82
2022-07-31T04:54:29.974Z,74.60
2022-07-31T04:56:58.592Z,74.69
2022-07-31T04:59:59.433Z,74.74
2022-07-31T05:02:12.596Z,74.14
2022-07-31T05:04:39.679Z,74.39
2022-07-31T05:07:06.327Z,74.29
2022-07-31T05:09:36.338Z,74.06
2022-07-31T05:12:05.550Z,73.66
2022-07-31T05:14:32.573Z,73.37
2022-07-31T05:16:59.324Z,73.52
2022-07-31T05:19:31.291Z,72.57
2022-07-31T05:22:16.619Z,72.95
2022-07-31T05:25:02.865Z,73.06
2022-07-31T05:27:29.538Z,73.19
2022-07-31T05:29:58.800Z,72.61
2022-07-31T05:32:25.386Z,72.78
2022-07-31T05:34:52.386Z,72.92
2022-07-31T05:37:20.041Z,72.52
2022-07-31T05:39:46.750Z,72.37
2022-07-31T05:42:33.605Z,72.67
2022-07-31T05:45:23.378Z,72.68
2022-07-31T05:47:50.152Z,72.73
2022-07-31T05:50:17.830Z,72.51
2022-07-31T05:52:45.694Z,72.32
2022-07-31T05:55:27.537Z,72.18
2022-07-31T05:57:54.184Z,72.30
2022-07-31T06:00:21.060Z,71.91
2022-07-31T06:02:48.217Z,71.57
2022-07-31T06:05:35.387Z,70.98
2022-07-31T06:08:02.306Z,71.12
2022-07-31T06:10:33.954Z,70.78
2022-07-31T06:13:00.747Z,70.81
2022-07-31T06:15:27.478Z,70.55
2022-07-31T06:17:54.756Z,70.43
2022-07-31T06:20:28.863Z,70.25
2022-07-31T06:22:55.764Z,70.30
2022-07-31T06:25:24.852Z,69.52
2022-07-31T06:27:59.316Z,69.64
2022-07-31T06:30:27.968Z,69.27
2022-07-31T06:32:55.216Z,69.00
2022-07-31T06:35:21.993Z,68.95
2022-07-31T06:38:11.963Z,69.00
2022-07-31T06:40:58.505Z,68.60
2022-07-31T06:43:34.535Z,68.44
2022-07-31T06:46:19.883Z,67.61
2022-07-31T06:49:24.758Z,67.19
2022-07-31T06:51:52.148Z,67.32
2022-07-31T06:54:19.141Z,67.31
2022-07-31T06:56:46.501Z,66.79
2022-07-31T06:59:13.151Z,66.73
2022-07-31T07:01:50.328Z,66.74
2022-07-31T07:04:17.029Z,67.03
2022-07-31T07:06:43.794Z,66.67
2022-07-31T07:09:11.493Z,66.51
2022-07-31T07:11:39.401Z,66.04
2022-07-31T07:14:06.337Z,66.00
2022-07-31T07:16:33.003Z,65.70
2022-07-31T07:18:59.721Z,65.53
2022-07-31T07:21:26.458Z,64.87
2022-07-31T07:23:53.188Z,64.89
2022-07-31T07:26:49.046Z,64.81
2022-07-31T07:29:15.828Z,62.93
2022-07-31T07:31:44.642Z,59.08
2022-07-31T07:34:11.994Z,58.30
2022-07-31T07:36:38.609Z,57.51
2022-07-31T07:39:17.604Z,57.25
2022-07-31T07:41:45.419Z,57.49
2022-07-31T07:44:12.195Z,55.66
2022-07-31T07:46:38.835Z,55.30
2022-07-31T07:49:07.446Z,55.09
2022-07-31T07:51:58.755Z,55.84
2022-07-31T07:54:47.116Z,56.11
2022-07-31T07:57:32.606Z,55.78
2022-07-31T08:00:07.886Z,54.94
2022-07-31T08:02:45.001Z,54.07
2022-07-31T08:05:32.313Z,52.76
2022-07-31T08:07:59.698Z,52.40
2022-07-31T08:10:44.734Z,50.38
2022-07-31T08:13:17.992Z,50.65
2022-07-31T08:16:03.505Z,50.66
2022-07-31T08:18:33.629Z,49.76
2022-07-31T08:21:00.286Z,50.76
2022-07-31T08:23:27.749Z,50.50
2022-07-31T08:25:55.343Z,50.24
2022-07-31T08:28:25.844Z,49.14
2022-07-31T08:30:53.989Z,49.13
2022-07-31T08:33:22.122Z,47.78
2022-07-31T08:35:54.434Z,46.77
2022-07-31T08:38:21.351Z,46.76
2022-07-31T08:41:07.431Z,47.40
2022-07-31T08:44:00.332Z,47.32
2022-07-31T08:46:22.147Z,47.17
2022-07-31T08:48:53.458Z,46.65
2022-07-31T08:51:22.581Z,47.53
2022-07-31T08:54:16.114Z,46.69
2022-07-31T08:56:43.115Z,46.73
2022-07-31T08:59:09.875Z,45.26
2022-07-31T09:01:38.839Z,45.54
2022-07-31T09:04:05.717Z,46.78
2022-07-31T09:06:33.408Z,46.94
2022-07-31T09:09:00.189Z,46.62
2022-07-31T09:11:27.265Z,46.40
2022-07-31T09:14:04.927Z,44.97
2022-07-31T09:16:49.046Z,44.51
2022-07-31T09:19:53.117Z,44.69
2022-07-31T09:22:21.886Z,44.21
2022-07-31T09:24:49.749Z,43.33
2022-07-31T09:27:17.833Z,43.35
2022-07-31T09:29:46.966Z,43.14
2022-07-31T09:32:43.261Z,43.18
2022-07-31T09:35:15.640Z,43.30
2022-07-31T09:37:47.167Z,43.01
2022-07-31T09:40:55.386Z,42.69
2022-07-31T09:43:59.768Z,43.51
2022-07-31T09:46:27.596Z,45.01
2022-07-31T09:49:00.703Z,44.33
2022-07-31T09:51:41.423Z,43.03
2022-07-31T09:54:21.195Z,42.58
2022-07-31T09:57:11.121Z,42.33
2022-07-31T09:59:40.581Z,42.27
2022-07-31T10:02:09.185Z,42.78
2022-07-31T10:04:38.769Z,43.28
2022-07-31T10:07:08.505Z,42.19
2022-07-31T10:09:40.062Z,41.64
2022-07-31T10:12:22.839Z,41.82
2022-07-31T10:14:53.637Z,41.74
2022-07-31T10:17:27.256Z,41.44
2022-07-31T10:20:21.740Z,41.27
2022-07-31T10:23:15.646Z,42.80
2022-07-31T10:25:53.559Z,42.87
2022-07-31T10:28:22.056Z,42.11
2022-07-31T10:30:49.219Z,41.29
2022-07-31T10:33:41.848Z,41.39
2022-07-31T10:36:35.338Z,40.26
2022-07-31T10:39:21.600Z,40.09
2022-07-31T10:42:13.169Z,40.28
2022-07-31T10:44:48.866Z,39.28
2022-07-31T10:47:20.973Z,38.43
2022-07-31T10:50:06.966Z,39.08
2022-07-31T10:52:54.207Z,38.83
2022-07-31T10:55:32.415Z,38.77
2022-07-31T10:58:22.636Z,38.49
2022-07-31T11:01:09.271Z,38.57
2022-07-31T11:04:04.758Z,38.32
2022-07-31T11:06:51.774Z,37.78
2022-07-31T11:09:51.272Z,36.61
2022-07-31T11:13:04.953Z,37.51
2022-07-31T11:16:03.639Z,37.76
2022-07-31T11:18:57.798Z,37.46
2022-07-31T11:21:39.899Z,37.35
2022-07-31T11:24:27.087Z,36.56
2022-07-31T11:26:58.495Z,35.94
2022-07-31T11:30:00.509Z,35.23
2022-07-31T11:32:25.963Z,35.79
2022-07-31T11:34:55.371Z,36.02
2022-07-31T11:37:46.163Z,35.60
2022-07-31T11:40:18.602Z,34.20
2022-07-31T11:42:46.236Z,32.07
2022-07-31T11:45:15.184Z,32.16
2022-07-31T11:48:11.956Z,33.79
2022-07-31T11:50:44.652Z,34.41
2022-07-31T11:53:12.775Z,34.46
2022-07-31T11:55:50.442Z,33.97
2022-07-31T11:58:19.393Z,33.65
2022-07-31T12:00:53.971Z,32.89
2022-07-31T12:03:24.565Z,32.22
2022-07-31T12:05:52.477Z,32.36
2022-07-31T12:08:20.412Z,31.94
2022-07-31T12:10:47.764Z,31.45
2022-07-31T12:13:17.075Z,30.89
2022-07-31T12:16:06.566Z,32.54
2022-07-31T12:18:48.727Z,32.06
2022-07-31T12:21:16.409Z,32.12
2022-07-31T12:23:51.885Z,31.58
2022-07-31T12:26:27.893Z,31.11
2022-07-31T12:29:00.706Z,31.23
2022-07-31T12:31:29.745Z,32.08
2022-07-31T12:33:56.649Z,31.92
2022-07-31T12:36:23.430Z,30.93
2022-07-31T12:39:01.557Z,33.30
2022-07-31T12:41:29.983Z,32.14
2022-07-31T12:44:14.533Z,31.69
2022-07-31T12:46:41.969Z,32.65
2022-07-31T12:49:09.366Z,31.37
2022-07-31T12:51:44.856Z,31.16
2022-07-31T12:54:16.929Z,30.51
2022-07-31T12:56:44.888Z,31.07
2022-07-31T12:59:12.156Z,30.73
2022-07-31T13:01:38.928Z,30.51
2022-07-31T13:04:08.035Z,30.91
2022-07-31T13:06:45.086Z,31.56
2022-07-31T13:09:11.800Z,31.17
2022-07-31T13:11:46.074Z,31.48
2022-07-31T13:14:18.631Z,31.13
2022-07-31T13:16:46.403Z,31.64
2022-07-31T13:19:13.688Z,31.46
2022-07-31T13:21:48.128Z,31.56
2022-07-31T13:24:20.956Z,31.96
2022-07-31T13:26:49.285Z,31.97
2022-07-31T13:29:16.644Z,31.22
2022-07-31T13:31:43.635Z,31.59
2022-07-31T13:34:10.501Z,30.88
2022-07-31T13:36:38.774Z,30.32
2022-07-31T13:39:07.421Z,30.26
2022-07-31T13:41:35.520Z,30.90
2022-07-31T13:44:02.990Z,31.50
2022-07-31T13:46:30.290Z,31.05
2022-07-31T13:48:59.316Z,31.14
2022-07-31T13:51:28.997Z,30.87
2022-07-31T13:53:56.098Z,31.60
2022-07-31T13:56:36.808Z,31.42
2022-07-31T13:59:08.665Z,31.37
2022-07-31T14:02:04.538Z,31.19
2022-07-31T14:04:23.881Z,31.98
2022-07-31T14:06:51.744Z,31.76
2022-07-31T14:09:19.251Z,32.35
2022-07-31T14:11:45.992Z,32.69
2022-07-31T14:14:15.123Z,32.20
2022-07-31T14:16:49.057Z,32.37
2022-07-31T14:19:15.693Z,33.01
2022-07-31T14:21:55.900Z,33.61
2022-07-31T14:24:24.795Z,33.08
2022-07-31T14:26:53.576Z,33.40
2022-07-31T14:29:20.244Z,33.70
2022-07-31T14:31:46.914Z,33.76
2022-07-31T14:34:13.575Z,33.80
2022-07-31T14:36:40.302Z,33.33
2022-07-31T14:39:06.924Z,34.28
2022-07-31T14:41:33.570Z,35.16
2022-07-31T14:44:00.529Z,34.66
2022-07-31T14:46:27.143Z,34.94
2022-07-31T14:48:53.934Z,34.37
2022-07-31T14:51:20.674Z,34.47
2022-07-31T14:53:47.898Z,34.78
2022-07-31T14:56:17.292Z,34.42
2022-07-31T14:58:58.200Z,35.15
2022-07-31T15:01:26.761Z,34.98
2022-07-31T15:03:57.582Z,34.73
2022-07-31T15:06:48.707Z,34.46
2022-07-31T15:09:11.323Z,33.75
2022-07-31T15:11:57.490Z,34.17
2022-07-31T15:14:25.115Z,34.14
2022-07-31T15:16:51.843Z,34.42
2022-07-31T15:19:18.555Z,35.33
2022-07-31T15:22:09.936Z,34.46
2022-07-31T15:24:32.757Z,35.26
2022-07-31T15:26:59.847Z,36.88
2022-07-31T15:30:05.196Z,35.93
2022-07-31T15:32:13.559Z,37.07
2022-07-31T15:34:40.160Z,37.60
2022-07-31T15:37:07.480Z,37.19
2022-07-31T15:39:34.412Z,36.53
2022-07-31T15:42:01.994Z,36.01
2022-07-31T15:44:29.002Z,37.04
2022-07-31T15:46:55.688Z,36.57
2022-07-31T15:49:22.317Z,37.80
2022-07-31T15:51:49.129Z,37.25
2022-07-31T15:54:18.101Z,36.72
2022-07-31T15:56:47.059Z,36.06
2022-07-31T15:59:13.801Z,34.92
2022-07-31T16:01:40.524Z,35.21
2022-07-31T16:04:16.484Z,35.04
2022-07-31T16:06:48.832Z,35.50
2022-07-31T16:09:17.308Z,34.88
2022-07-31T16:12:02.903Z,35.60
2022-07-31T16:14:30.790Z,35.70
2022-07-31T16:16:57.594Z,35.91
2022-07-31T16:19:27.562Z,34.85
2022-07-31T16:21:58.054Z,33.75
2022-07-31T16:24:24.730Z,33.61
2022-07-31T16:26:51.369Z,34.32
2022-07-31T16:29:59.722Z,34.61
2022-07-31T16:32:07.918Z,35.91
2022-07-31T16:34:34.569Z,35.71
2022-07-31T16:37:01.208Z,35.31
2022-07-31T16:39:27.801Z,35.00
2022-07-31T16:41:55.315Z,35.02
2022-07-31T16:44:22.081Z,35.27
2022-07-31T16:46:54.212Z,34.28
2022-07-31T16:49:35.352Z,32.21
2022-07-31T16:52:04.214Z,31.88
2022-07-31T16:54:31.074Z,32.54
2022-07-31T16:56:57.716Z,33.03
2022-07-31T16:59:24.381Z,33.39
2022-07-31T17:01:57.855Z,34.06
2022-07-31T17:04:26.530Z,34.17
2022-07-31T17:06:53.182Z,35.05
2022-07-31T17:09:20.257Z,35.44
2022-07-31T17:11:49.038Z,35.48
2022-07-31T17:14:18.153Z,36.33
2022-07-31T17:16:48.010Z,37.14
2022-07-31T17:19:42.760Z,37.10
2022-07-31T17:22:11.542Z,37.48
2022-07-31T17:24:38.974Z,37.78
2022-07-31T17:27:09.725Z,38.76
2022-07-31T17:29:39.647Z,39.34
2022-07-31T17:32:07.010Z,40.42
2022-07-31T17:34:35.417Z,41.26
2022-07-31T17:37:02.483Z,41.41
2022-07-31T17:39:31.225Z,41.55
2022-07-31T17:41:58.674Z,42.04
2022-07-31T17:44:25.304Z,42.85
2022-07-31T17:46:52.688Z,43.54
2022-07-31T17:49:20.795Z,44.08
2022-07-31T17:51:57.802Z,43.75
2022-07-31T17:54:27.885Z,43.00
2022-07-31T17:56:54.639Z,43.67
2022-07-31T17:59:21.471Z,44.61
2022-07-31T18:01:51.426Z,45.99
2022-07-31T18:04:18.442Z,46.71
2022-07-31T18:06:45.293Z,47.11
2022-07-31T18:09:12.060Z,48.36
2022-07-31T18:11:38.768Z,48.41
2022-07-31T18:14:05.363Z,49.43
2022-07-31T18:16:31.965Z,50.07
2022-07-31T18:18:58.709Z,50.64
2022-07-31T18:21:25.347Z,51.52
2022-07-31T18:23:52.173Z,51.67
2022-07-31T18:26:18.798Z,52.38
2022-07-31T18:28:45.398Z,52.89
2022-07-31T18:31:24.181Z,53.39
2022-07-31T18:33:58.842Z,53.74
2022-07-31T18:36:26.489Z,54.19
2022-07-31T18:38:53.155Z,54.44
2022-07-31T18:41:20.731Z,54.50
2022-07-31T18:43:47.430Z,54.15
2022-07-31T18:46:14.194Z,54.08
2022-07-31T18:48:40.872Z,54.00
2022-07-31T18:51:07.571Z,53.84
2022-07-31T18:53:34.342Z,53.99
2022-07-31T18:56:01.071Z,54.29
2022-07-31T18:58:27.725Z,54.29
2022-07-31T19:00:56.630Z,54.77
2022-07-31T19:03:25.667Z,54.96
2022-07-31T19:05:53.049Z,54.85
2022-07-31T19:08:20.678Z,55.01
2022-07-31T19:10:49.446Z,55.39
2022-07-31T19:13:19.083Z,55.43
2022-07-31T19:15:51.479Z,55.38
2022-07-31T19:18:18.738Z,55.59
2022-07-31T19:21:00.420Z,55.27
2022-07-31T19:23:41.734Z,55.33
2022-07-31T19:26:08.710Z,55.39
2022-07-31T19:28:36.352Z,55.07
2022-07-31T19:31:06.469Z,55.17
2022-07-31T19:33:35.585Z,55.37
2022-07-31T19:36:03.225Z,55.01
2022-07-31T19:38:35.811Z,54.95
2022-07-31T19:41:02.812Z,55.04
2022-07-31T19:43:29.965Z,54.86
2022-07-31T19:46:09.712Z,55.34
2022-07-31T19:48:41.474Z,55.27
2022-07-31T19:51:09.501Z,55.30
2022-07-31T19:53:36.231Z,55.54
2022-07-31T19:56:05.764Z,55.48
2022-07-31T19:58:36.447Z,55.52
2022-07-31T20:01:06.042Z,55.33
2022-07-31T20:03:33.367Z,55.76
2022-07-31T20:06:00.328Z,56.24
2022-07-31T20:08:27.098Z,56.68
2022-07-31T20:11:03.506Z,57.22
2022-07-31T20:13:33.926Z,57.35
2022-07-31T20:16:01.213Z,57.49
2022-07-31T20:18:29.027Z,57.54
2022-07-31T20:20:58.750Z,57.45
2022-07-31T20:23:26.568Z,57.32
2022-07-31T20:25:53.695Z,57.52
2022-07-31T20:28:20.639Z,57.69
2022-07-31T20:30:47.315Z,58.02
2022-07-31T20:33:13.923Z,58.15
2022-07-31T20:35:49.213Z,58.94
2022-07-31T20:38:18.179Z,59.08
2022-07-31T20:40:48.238Z,59.42
2022-07-31T20:43:21.389Z,59.70
2022-07-31T20:45:48.330Z,59.94
2022-07-31T20:48:17.716Z,59.98
2022-07-31T20:50:48.253Z,60.13
2022-07-31T20:53:19.282Z,60.08
2022-07-31T20:55:47.479Z,60.19
2022-07-31T20:58:14.308Z,60.18
2022-07-31T21:00:42.001Z,60.21
2022-07-31T21:03:08.666Z,60.18
2022-07-31T21:05:35.408Z,60.18
2022-07-31T21:08:02.166Z,60.53
2022-07-31T21:10:29.691Z,60.57
2022-07-31T21:12:56.917Z,60.79
2022-07-31T21:15:42.899Z,60.90
2022-07-31T21:18:18.619Z,60.92
2022-07-31T21:20:51.810Z,61.42
2022-07-31T21:23:24.655Z,61.49
2022-07-31T21:25:52.618Z,61.83
2022-07-31T21:28:19.747Z,61.83
2022-07-31T21:30:47.160Z,62.12
2022-07-31T21:33:14.148Z,61.98
2022-07-31T21:35:41.521Z,62.57
2022-07-31T21:38:12.559Z,62.66
2022-07-31T21:40:40.315Z,62.99
2022-07-31T21:43:07.731Z,63.17
2022-07-31T21:45:50.898Z,63.20
2022-07-31T21:48:23.168Z,63.47
2022-07-31T21:50:50.286Z,63.54
2022-07-31T21:53:16.946Z,63.74
2022-07-31T21:55:43.907Z,63.98
2022-07-31T21:58:10.724Z,64.20
2022-07-31T22:00:37.669Z,64.49
2022-07-31T22:03:05.197Z,64.76
2022-07-31T22:05:50.683Z,64.93
2022-07-31T22:08:18.146Z,64.74
2022-07-31T22:10:44.893Z,65.12
2022-07-31T22:13:12.134Z,65.53
2022-07-31T22:15:55.476Z,65.42
2022-07-31T22:18:27.039Z,65.60
2022-07-31T22:20:54.166Z,65.98
2022-07-31T22:23:21.040Z,66.17
2022-07-31T22:25:51.377Z,66.33
2022-07-31T22:28:20.779Z,66.04
2022-07-31T22:30:47.903Z,65.96
2022-07-31T22:33:14.636Z,66.16
2022-07-31T22:35:41.545Z,65.93
2022-07-31T22:38:09.337Z,66.12
2022-07-31T22:40:36.125Z,66.37
2022-07-31T22:43:03.478Z,66.47
2022-07-31T22:45:30.303Z,66.00
2022-07-31T22:47:57.907Z,66.07
2022-07-31T22:50:24.824Z,65.97
2022-07-31T22:52:52.019Z,65.84
2022-07-31T22:55:21.783Z,65.99
2022-07-31T22:57:48.483Z,65.98
2022-07-31T23:00:18.290Z,66.23
2022-07-31T23:02:45.912Z,66.37
2022-07-31T23:05:12.766Z,66.35
2022-07-31T23:07:39.486Z,66.44
2022-07-31T23:10:07.558Z,66.44
2022-07-31T23:12:34.686Z,66.46
2022-07-31T23:15:01.325Z,66.56
2022-07-31T23:17:28.031Z,66.71
2022-07-31T23:19:54.915Z,66.68
2022-07-31T23:22:33.798Z,66.70
2022-07-31T23:25:10.273Z,66.88
2022-07-31T23:27:36.915Z,66.58
2022-07-31T23:30:04.329Z,66.52
2022-07-31T23:32:31.008Z,66.52
2022-07-31T23:34:57.746Z,66.48
2022-07-31T23:37:24.418Z,66.58
2022-07-31T23:39:51.033Z,66.72
2022-07-31T23:42:36.282Z,66.85
2022-07-31T23:45:03.373Z,66.65
2022-07-31T23:47:45.581Z,66.60
2022-07-31T23:50:15.057Z,66.64
2022-07-31T23:52:42.609Z,66.62
2022-07-31T23:55:09.705Z,66.58
2022-07-31T23:57:36.566Z,66.54
